Time;durP1;ratioP1;P1;durP2;ratioP2;P2;SDS_P1;SDS_P2;PMS_P1;PMS_P2;Temp;Humidity;BMP_temperature;BMP_pressure;BME280_temperature;BME280_humidity;BME280_pressure;Samples;Min_cycle;Max_cycle;Signal;HPM_P1;HPM_P2
2023/08/24 00:04:20;;;;;;;4.50;3.30;;;;;;;24.34;54.62;100321.84;10345225;28;20500;-48
2023/08/24 00:09:22;;;;;;;3.88;3.40;;;;;;;24.21;54.87;100306.38;10343432;28;20130;-49
2023/08/24 00:14:23;;;;;;;5.85;3.60;;;;;;;24.26;55.19;100317.47;10331268;28;20108;-49
2023/08/24 00:19:25;;;;;;;4.65;3.50;;;;;;;24.26;56.37;100324.78;10344709;28;20415;-49
2023/08/24 00:24:26;;;;;;;5.40;3.65;;;;;;;24.24;56.08;100316.84;10333696;28;20196;-49
2023/08/24 00:29:27;;;;;;;5.07;4.47;;;;;;;24.13;56.28;100306.63;10347159;28;20062;-49
2023/08/24 00:34:29;;;;;;;4.53;4.03;;;;;;;24.20;58.91;100323.75;10346302;28;20061;-49
2023/08/24 00:39:31;;;;;;;4.75;4.30;;;;;;;24.12;57.15;100318.53;10345193;28;20159;-49
2023/08/24 00:44:33;;;;;;;4.38;3.70;;;;;;;24.08;57.67;100303.69;10347475;28;20077;-49
2023/08/24 00:49:35;;;;;;;3.70;3.22;;;;;;;24.01;58.92;100292.84;10341075;28;20136;-49
2023/08/24 00:54:39;;;;;;;3.67;3.17;;;;;;;24.05;57.80;100314.97;10329657;28;20059;-49
2023/08/24 00:59:40;;;;;;;3.53;2.63;;;;;;;24.03;59.08;100317.09;10345713;28;20068;-52
2023/08/24 01:04:45;;;;;;;3.85;2.55;;;;;;;23.98;57.83;100315.81;10347503;28;21036;-48
2023/08/24 01:09:47;;;;;;;3.80;2.78;;;;;;;23.97;60.00;100335.06;10335232;28;20053;-49
2023/08/24 01:14:58;;;;;;;;;;;;;;;23.85;59.88;100342.16;10348542;28;20115;-49
2023/08/24 01:20:05;;;;;;;3.35;2.40;;;;;;;23.74;58.12;100349.06;10343088;28;19960;-49
2023/08/24 01:25:07;;;;;;;4.43;2.53;;;;;;;23.65;57.45;100343.81;10346276;28;20331;-49
2023/08/24 01:30:10;;;;;;;3.42;1.75;;;;;;;23.63;55.57;100345.06;10345904;28;20124;-48
2023/08/24 01:35:11;;;;;;;3.27;2.10;;;;;;;23.58;57.05;100342.13;10346449;28;20837;-48
2023/08/24 01:40:23;;;;;;;4.63;1.75;;;;;;;23.54;56.92;100336.28;10334291;28;20123;-48
2023/08/24 01:45:29;;;;;;;3.28;2.03;;;;;;;23.55;56.73;100326.25;10341203;28;20055;-48
2023/08/24 01:50:31;;;;;;;4.72;1.90;;;;;;;23.54;56.16;100330.00;10346147;28;20109;-48
2023/08/24 01:55:32;;;;;;;2.20;1.95;;;;;;;23.55;56.90;100326.25;10355493;28;20046;-48
2023/08/24 02:00:34;;;;;;;2.85;2.33;;;;;;;23.53;56.35;100337.31;10350883;28;20053;-49
2023/08/24 02:05:35;;;;;;;2.65;2.00;;;;;;;23.52;56.69;100326.66;10351637;28;20046;-48
2023/08/24 02:10:36;;;;;;;3.53;2.35;;;;;;;23.38;56.34;100302.19;10352142;28;20053;-49
2023/08/24 02:15:41;;;;;;;2.75;2.33;;;;;;;23.39;56.74;100303.00;10339767;28;20573;-51
2023/08/24 02:20:42;;;;;;;3.88;3.50;;;;;;;23.32;57.37;100308.44;10337049;28;20604;-49
2023/08/24 02:25:44;;;;;;;5.05;2.92;;;;;;;23.28;57.39;100302.59;10350759;28;20053;-48
2023/08/24 02:30:45;;;;;;;7.28;4.07;;;;;;;23.22;57.46;100303.41;10351807;28;20583;-48
2023/08/24 02:35:47;;;;;;;5.10;2.38;;;;;;;23.15;57.51;100294.44;10338130;28;20048;-48
2023/08/24 02:40:49;;;;;;;3.83;2.45;;;;;;;23.10;57.40;100277.91;10337093;28;20749;-48
2023/08/24 02:45:50;;;;;;;2.22;1.77;;;;;;;23.08;57.45;100290.81;10349025;28;20050;-49
2023/08/24 02:50:52;;;;;;;5.65;2.38;;;;;;;23.01;58.05;100287.25;10350818;28;20049;-48
2023/08/24 02:55:55;;;;;;;3.17;2.42;;;;;;;22.71;58.57;100260.44;10347802;28;20052;-48
2023/08/24 03:00:57;;;;;;;2.65;2.17;;;;;;;22.91;58.73;100279.50;10340167;28;20048;-48
2023/08/24 03:06:00;;;;;;;4.20;2.60;;;;;;;22.91;58.04;100279.50;10346294;28;20049;-48
2023/08/24 03:11:02;;;;;;;;;;;;;;;22.90;58.92;100270.50;10332025;28;20103;-48
2023/08/24 03:16:05;;;;;;;3.55;2.30;;;;;;;22.92;58.24;100265.75;10346560;28;19925;-48
2023/08/24 03:21:06;;;;;;;3.17;2.70;;;;;;;22.85;58.42;100256.75;10331236;28;20053;-48
2023/08/24 03:26:08;;;;;;;5.45;2.50;;;;;;;22.62;58.64;100229.09;10344527;28;20132;-48
2023/08/24 03:31:09;;;;;;;4.15;2.13;;;;;;;22.78;58.50;100264.00;10329835;28;20056;-49
2023/08/24 03:36:11;;;;;;;3.08;2.00;;;;;;;22.74;58.74;100257.31;10327041;28;20045;-49
2023/08/24 03:41:12;;;;;;;3.72;2.10;;;;;;;22.68;58.96;100255.41;10341492;28;20183;-49
2023/08/24 03:46:14;;;;;;;5.22;2.65;;;;;;;22.64;59.27;100248.72;10324274;28;20046;-49
2023/08/24 03:51:16;;;;;;;4.05;2.28;;;;;;;22.42;59.21;100219.84;10344144;28;20764;-49
2023/08/24 03:56:17;;;;;;;3.45;2.15;;;;;;;22.59;58.99;100227.63;10345183;28;20132;-51
2023/08/24 04:01:19;;;;;;;3.30;1.98;;;;;;;22.51;59.62;100227.81;10343733;28;20156;-51
2023/08/24 04:06:20;;;;;;;5.57;2.35;;;;;;;22.51;59.71;100206.13;10342883;28;20049;-48
2023/08/24 04:11:22;;;;;;;2.88;1.80;;;;;;;22.51;60.05;100212.38;10340444;28;20699;-49
2023/08/24 04:16:23;;;;;;;3.80;2.17;;;;;;;22.46;60.25;100225.72;10340246;28;20064;-50
2023/08/24 04:21:24;;;;;;;2.92;2.15;;;;;;;22.45;60.64;100225.91;10336375;28;20298;-50
2023/08/24 04:26:26;;;;;;;2.47;1.90;;;;;;;22.42;61.10;100219.00;10340393;28;20721;-50
2023/08/24 04:31:27;;;;;;;2.15;1.90;;;;;;;22.37;60.45;100165.38;10337656;28;20053;-51
2023/08/24 04:36:29;;;;;;;6.43;2.22;;;;;;;22.24;62.11;100198.66;10342385;28;20163;-49
2023/08/24 04:41:32;;;;;;;4.63;2.38;;;;;;;22.26;62.70;100190.31;10329245;28;20068;-50
2023/08/24 04:46:33;;;;;;;2.63;1.88;;;;;;;22.23;62.83;100194.31;10339925;28;20421;-49
2023/08/24 04:51:35;;;;;;;4.22;2.08;;;;;;;22.22;62.49;100200.75;10323359;28;20151;-49
2023/08/24 04:56:36;;;;;;;2.55;1.92;;;;;;;22.28;63.53;100199.13;10326596;28;20063;-49
2023/08/24 05:01:38;;;;;;;2.75;1.88;;;;;;;22.20;62.79;100167.59;10339954;28;20616;-50
2023/08/24 05:06:40;;;;;;;2.67;1.77;;;;;;;22.20;62.71;100226.38;10335918;28;20088;-50
2023/08/24 05:11:41;;;;;;;3.25;2.10;;;;;;;22.17;62.55;100260.16;10323676;28;20439;-53
2023/08/24 05:16:42;;;;;;;4.25;2.00;;;;;;;21.91;65.03;100308.78;10323194;28;20153;-54
2023/08/24 05:21:44;;;;;;;5.22;2.55;;;;;;;21.75;64.65;100315.28;10328851;28;20045;-54
2023/08/24 05:26:46;;;;;;;2.63;2.20;;;;;;;21.78;64.51;100331.16;10329172;28;20054;-58
2023/08/24 05:31:47;;;;;;;3.10;2.55;;;;;;;21.72;66.15;100354.44;10331228;28;20053;-54
2023/08/24 05:36:49;;;;;;;4.60;2.60;;;;;;;21.79;64.63;100366.19;10333011;28;20122;-56
2023/08/24 05:41:51;;;;;;;6.28;2.88;;;;;;;21.84;64.93;100363.75;10330050;28;20049;-54
2023/08/24 05:46:53;;;;;;;3.23;2.20;;;;;;;21.90;63.58;100329.59;10329984;28;20183;-54
2023/08/24 05:51:54;;;;;;;3.95;2.67;;;;;;;22.05;62.36;100345.75;10328357;28;20444;-53
2023/08/24 05:57:00;;;;;;;3.33;2.20;;;;;;;22.08;62.16;100342.66;10327012;28;20061;-54
2023/08/24 06:02:03;;;;;;;4.85;2.85;;;;;;;22.17;62.03;100346.91;10328147;28;20057;-53
2023/08/24 06:07:04;;;;;;;4.55;2.70;;;;;;;22.23;61.31;100347.97;10329141;28;20050;-54
2023/08/24 06:12:07;;;;;;;4.28;2.22;;;;;;;22.34;62.01;100352.91;10332219;28;20049;-53
2023/08/24 06:17:08;;;;;;;2.75;2.35;;;;;;;22.36;60.99;100336.44;10316512;28;20052;-53
2023/08/24 06:22:10;;;;;;;6.00;2.40;;;;;;;22.47;61.30;100354.84;10308872;28;20568;-53
2023/08/24 06:27:11;;;;;;;2.70;2.00;;;;;;;22.54;61.74;100344.03;10320696;28;20180;-57
2023/08/24 06:32:13;;;;;;;4.15;2.50;;;;;;;22.55;62.00;100314.00;10304470;28;20064;-58
2023/08/24 06:37:14;;;;;;;3.10;2.00;;;;;;;22.64;61.54;100325.53;10333280;28;20057;-54
2023/08/24 06:42:16;;;;;;;4.57;2.13;;;;;;;22.58;61.72;100326.34;10323516;28;20065;-53
2023/08/24 06:47:17;;;;;;;4.28;2.63;;;;;;;22.66;61.86;100330.75;10335175;28;20067;-54
2023/08/24 06:52:19;;;;;;;3.63;2.35;;;;;;;22.60;62.87;100265.41;10323492;28;20061;-54
2023/08/24 06:57:20;;;;;;;7.72;2.50;;;;;;;22.56;63.71;100207.19;10336388;28;20119;-54
2023/08/24 07:02:22;;;;;;;5.28;2.58;;;;;;;22.57;64.51;100200.69;10333509;28;20053;-56
2023/08/24 07:07:24;;;;;;;3.42;2.30;;;;;;;22.53;63.26;100228.44;10335555;28;20335;-55
2023/08/24 07:12:26;;;;;;;8.23;2.80;;;;;;;22.44;63.60;100260.31;10314349;28;21115;-55
2023/08/24 07:17:27;;;;;;;4.95;2.60;;;;;;;22.47;63.76;100262.63;10331920;28;20079;-57
2023/08/24 07:22:29;;;;;;;2.92;2.60;;;;;;;22.38;64.36;100223.16;10332459;28;20057;-58
2023/08/24 07:27:35;;;;;;;3.78;2.83;;;;;;;22.48;64.66;100233.66;10329585;28;20045;-57
2023/08/24 07:32:36;;;;;;;3.97;2.80;;;;;;;22.40;66.27;100215.69;10316410;28;20068;-55
2023/08/24 07:37:38;;;;;;;3.78;3.30;;;;;;;22.35;66.27;100234.41;10333912;28;20622;-55
2023/08/24 07:42:47;;;;;;;5.95;3.30;;;;;;;22.36;66.62;100220.66;10337046;28;21586;-54
2023/08/24 07:47:49;;;;;;;5.60;2.55;;;;;;;22.30;67.03;100236.88;10335861;28;20137;-58
2023/08/24 07:52:51;;;;;;;5.67;4.10;;;;;;;22.30;68.32;100253.13;10323378;28;20536;-55
2023/08/24 07:57:57;;;;;;;5.38;3.28;;;;;;;22.33;68.53;100245.47;10317419;28;20536;-54
2023/08/24 08:02:59;;;;;;;4.97;3.00;;;;;;;22.35;68.45;100215.44;10334053;28;20062;-55
2023/08/24 08:08:00;;;;;;;3.63;3.28;;;;;;;22.32;69.19;100170.56;10333289;28;20185;-55
2023/08/24 08:13:02;;;;;;;5.63;3.35;;;;;;;22.29;68.95;100132.16;10336232;28;20121;-55
2023/08/24 08:18:04;;;;;;;3.70;3.00;;;;;;;22.16;69.03;100117.53;10331651;28;20442;-54
2023/08/24 08:23:06;;;;;;;8.07;2.97;;;;;;;22.40;69.02;100193.97;10330569;28;20065;-54
2023/08/24 08:28:07;;;;;;;4.40;3.15;;;;;;;22.34;67.95;100175.78;10330098;28;20141;-55
2023/08/24 08:33:09;;;;;;;6.38;3.05;;;;;;;22.46;67.53;100178.75;10333202;28;20509;-54
2023/08/24 08:38:11;;;;;;;3.13;2.13;;;;;;;22.59;68.25;100176.94;10332404;28;20056;-54
2023/08/24 08:43:12;;;;;;;4.32;2.70;;;;;;;22.78;66.99;100180.72;10319063;28;20058;-54
2023/08/24 08:48:14;;;;;;;3.67;2.33;;;;;;;23.09;66.03;100165.78;10335196;28;20045;-56
2023/08/24 08:53:16;;;;;;;3.75;2.70;;;;;;;23.34;64.74;100135.25;10338474;28;20048;-56
2023/08/24 08:58:19;;;;;;;4.13;2.30;;;;;;;23.70;64.30;100150.25;10330884;28;20077;-53
2023/08/24 09:03:22;;;;;;;3.60;2.20;;;;;;;24.07;63.05;100128.03;10334142;28;20882;-57
2023/08/24 09:08:27;;;;;;;6.00;2.65;;;;;;;24.48;61.26;100135.75;10330712;28;20135;-59
2023/08/24 09:13:29;;;;;;;5.50;1.90;;;;;;;24.69;58.91;100118.28;10335069;28;20065;-58
2023/08/24 09:18:36;;;;;;;4.68;1.98;;;;;;;24.98;58.17;100115.13;10332487;28;20053;-60
2023/08/24 09:23:42;;;;;;;3.55;1.67;;;;;;;25.37;57.36;100122.19;10331714;28;20094;-58
2023/08/24 09:28:44;;;;;;;3.95;2.28;;;;;;;25.56;55.55;100097.66;10330659;28;20150;-58
2023/08/24 09:33:47;;;;;;;3.13;2.42;;;;;;;25.91;54.93;100110.66;10335417;28;20610;-62
2023/08/24 09:38:50;;;;;;;4.30;1.92;;;;;;;26.09;54.39;100105.25;10334512;28;20112;-59
2023/08/24 09:43:51;;;;;;;5.47;2.10;;;;;;;26.44;53.85;100095.56;10333824;28;20049;-59
2023/08/24 09:48:54;;;;;;;4.13;1.90;;;;;;;26.83;52.60;100084.25;10334689;28;21323;-59
2023/08/24 09:54:00;;;;;;;3.25;2.55;;;;;;;27.07;50.63;100066.00;10331799;28;20405;-60
2023/08/24 09:59:10;;;;;;;5.43;2.55;;;;;;;27.25;50.93;100037.72;10318090;28;20479;-60
2023/08/24 10:04:14;;;;;;;3.75;2.10;;;;;;;27.62;49.88;100038.31;10335479;28;20566;-55
2023/08/24 10:09:25;;;;;;;3.20;2.00;;;;;;;27.79;49.66;100027.44;10329644;28;20076;-54
2023/08/24 10:14:32;;;;;;;5.35;2.50;;;;;;;27.89;49.61;100028.69;10342087;28;20056;-53
2023/08/24 10:19:34;;;;;;;3.50;2.35;;;;;;;27.98;47.85;100024.53;10338908;28;20084;-59
2023/08/24 10:24:36;;;;;;;3.77;1.80;;;;;;;28.28;48.10;100015.22;10341398;28;20052;-53
2023/08/24 10:29:37;;;;;;;4.38;1.95;;;;;;;28.88;45.76;100006.38;10338278;28;20353;-54
2023/08/24 10:34:39;;;;;;;2.40;2.00;;;;;;;28.70;46.12;99998.44;10317542;28;20061;-56
2023/08/24 10:39:45;;;;;;;6.07;2.50;;;;;;;28.60;47.04;99995.53;10340296;28;20050;-53
2023/08/24 10:44:49;;;;;;;4.25;2.53;;;;;;;28.65;46.82;100001.09;10342442;28;20513;-53
2023/08/24 10:49:56;;;;;;;4.75;2.55;;;;;;;28.64;47.38;100013.13;10343135;28;20099;-53
2023/08/24 10:55:01;;;;;;;3.28;2.70;;;;;;;28.57;47.43;99994.94;10326579;28;20057;-53
2023/08/24 11:00:10;;;;;;;3.92;2.20;;;;;;;28.64;46.34;99981.09;10337874;28;20056;-53
2023/08/24 11:05:21;;;;;;;3.42;2.50;;;;;;;28.79;46.73;99975.00;10340751;28;20056;-53
2023/08/24 11:10:24;;;;;;;4.28;2.65;;;;;;;28.99;46.47;99979.97;10342722;28;20049;-53
2023/08/24 11:15:31;;;;;;;5.50;2.90;;;;;;;29.02;46.44;99981.38;10341023;28;20041;-50
2023/08/24 11:20:32;;;;;;;4.55;2.30;;;;;;;28.85;47.37;99987.69;10342443;28;20045;-50
2023/08/24 11:25:36;;;;;;;3.87;2.77;;;;;;;28.92;46.97;99987.53;10343446;28;20180;-50
2023/08/24 11:30:37;;;;;;;3.85;2.75;;;;;;;28.90;45.61;99971.34;10321700;28;20053;-51
2023/08/24 11:35:42;;;;;;;3.83;3.30;;;;;;;29.26;45.29;99947.22;10345135;28;20603;-49
2023/08/24 11:40:43;;;;;;;2.92;2.40;;;;;;;29.72;45.19;99943.34;10340974;28;20717;-50
2023/08/24 11:45:44;;;;;;;4.17;2.67;;;;;;;30.04;43.42;99934.34;10328157;28;20497;-50
2023/08/24 11:50:48;;;;;;;4.53;2.50;;;;;;;30.28;42.38;99924.69;10329401;28;20049;-51
2023/08/24 11:55:52;;;;;;;2.75;2.55;;;;;;;30.19;41.17;99919.94;10320240;28;20064;-51
2023/08/24 12:01:08;;;;;;;3.15;2.55;;;;;;;30.13;42.52;99914.41;10335588;28;20060;-53
2023/08/24 12:06:14;;;;;;;5.60;2.78;;;;;;;30.41;42.97;99914.38;10338256;28;20281;-52
2023/08/24 12:11:18;;;;;;;3.17;2.83;;;;;;;30.58;39.59;99894.97;10319470;28;20123;-52
2023/08/24 12:16:22;;;;;;;3.83;2.40;;;;;;;30.46;39.72;99882.28;10319473;28;20058;-53
2023/08/24 12:21:23;;;;;;;4.25;2.72;;;;;;;30.26;38.67;99885.69;10332182;28;20407;-53
2023/08/24 12:26:27;;;;;;;2.92;2.13;;;;;;;30.11;39.74;99888.31;10337306;28;20053;-53
2023/08/24 12:31:29;;;;;;;2.55;2.15;;;;;;;30.02;40.82;99876.97;10316862;28;20049;-53
2023/08/24 12:36:35;;;;;;;2.53;2.00;;;;;;;29.96;39.81;99869.81;10335940;28;20057;-52
2023/08/24 12:41:38;;;;;;;2.58;2.10;;;;;;;29.88;40.83;99860.16;10331277;28;20076;-52
2023/08/24 12:46:39;;;;;;;4.95;2.10;;;;;;;29.80;41.14;99855.13;10331572;28;20112;-52
2023/08/24 12:51:44;;;;;;;3.47;2.10;;;;;;;29.72;41.71;99855.56;10332522;28;20119;-52
2023/08/24 12:56:46;;;;;;;2.17;1.98;;;;;;;29.71;41.78;99864.88;10333770;28;20053;-52
2023/08/24 13:01:48;;;;;;;4.43;1.83;;;;;;;29.69;41.33;99869.81;10331519;28;20537;-52
2023/08/24 13:06:49;;;;;;;3.93;2.20;;;;;;;29.59;42.10;99865.88;10335605;28;20143;-53
2023/08/24 13:11:50;;;;;;;3.40;2.53;;;;;;;29.66;42.39;99873.06;10332165;28;20049;-52
2023/08/24 13:16:52;;;;;;;5.80;2.67;;;;;;;29.68;41.87;99860.75;10334219;28;20057;-53
2023/08/24 13:21:53;;;;;;;3.00;2.35;;;;;;;29.65;42.65;99849.47;10318339;28;21126;-58
2023/08/24 13:26:55;;;;;;;2.13;1.90;;;;;;;29.59;43.33;99843.09;10314806;28;20680;-53
2023/08/24 13:31:56;;;;;;;5.53;2.17;;;;;;;29.52;43.64;99858.97;10326056;28;20060;-53
2023/08/24 13:36:58;;;;;;;4.68;2.35;;;;;;;29.42;43.33;99863.22;10333417;28;20056;-53
2023/08/24 13:42:01;;;;;;;4.45;2.20;;;;;;;29.35;42.92;99870.00;10329879;28;20765;-51
2023/08/24 13:47:02;;;;;;;2.55;1.80;;;;;;;29.26;43.87;99865.00;10320947;28;20048;-52
2023/08/24 13:52:04;;;;;;;2.67;2.30;;;;;;;29.34;43.56;99891.13;10321006;28;20522;-51
2023/08/24 13:57:05;;;;;;;2.60;1.80;;;;;;;29.39;43.47;99882.13;10340207;28;20061;-52
2023/08/24 14:02:08;;;;;;;2.47;2.10;;;;;;;29.45;43.57;99875.59;10338177;28;20292;-54
2023/08/24 14:07:09;;;;;;;3.33;2.25;;;;;;;29.48;43.74;99866.84;10333868;28;20323;-59
2023/08/24 14:12:10;;;;;;;3.83;2.10;;;;;;;29.50;43.88;99878.41;10338967;28;20410;-53
2023/08/24 14:17:12;;;;;;;3.63;2.15;;;;;;;29.44;43.51;99863.00;10320850;28;20057;-53
2023/08/24 14:22:14;;;;;;;2.65;1.80;;;;;;;29.37;43.70;99811.09;10313028;28;20692;-53
2023/08/24 14:27:16;;;;;;;3.73;1.87;;;;;;;29.29;43.62;99732.09;10336551;28;20053;-53
2023/08/24 14:32:18;;;;;;;3.40;2.33;;;;;;;29.15;43.74;99697.97;10336032;28;20054;-54
2023/08/24 14:37:19;;;;;;;3.35;2.17;;;;;;;29.03;43.85;99703.59;10329063;28;20107;-53
2023/08/24 14:42:21;;;;;;;4.70;2.33;;;;;;;28.89;44.11;99783.44;10333030;28;20065;-53
2023/08/24 14:47:22;;;;;;;3.73;2.43;;;;;;;28.72;44.38;99804.63;10339861;28;20559;-53
2023/08/24 14:52:24;;;;;;;4.10;2.37;;;;;;;28.66;44.38;99846.66;10325625;28;20296;-53
2023/08/24 14:57:25;;;;;;;4.13;2.63;;;;;;;28.47;43.79;99874.31;10325603;28;20080;-54
2023/08/24 15:02:27;;;;;;;2.83;2.27;;;;;;;28.42;44.39;99909.00;10309860;28;20049;-52
2023/08/24 15:07:28;;;;;;;6.82;2.97;;;;;;;28.34;45.15;99894.63;10335486;28;20045;-54
2023/08/24 15:12:30;;;;;;;3.92;3.13;;;;;;;28.40;45.61;99890.06;10337986;28;20069;-54
2023/08/24 15:17:32;;;;;;;4.40;2.43;;;;;;;28.35;45.91;99843.50;10331957;28;20786;-54
2023/08/24 15:22:33;;;;;;;5.60;2.70;;;;;;;28.41;46.05;99828.78;10336801;28;20140;-52
2023/08/24 15:27:36;;;;;;;1.93;1.73;;;;;;;28.39;46.23;99801.69;10307511;28;20058;-51
2023/08/24 15:32:38;;;;;;;4.75;2.65;;;;;;;28.38;46.88;99771.81;10313086;28;20045;-51
2023/08/24 15:37:40;;;;;;;4.10;2.28;;;;;;;28.36;47.01;99719.28;10336005;28;20065;-51
2023/08/24 15:42:41;;;;;;;3.83;2.70;;;;;;;28.27;47.49;99687.94;10311017;28;20058;-51
2023/08/24 15:47:42;;;;;;;4.43;2.80;;;;;;;28.24;48.11;99674.75;10330758;28;20053;-51
2023/08/24 15:52:44;;;;;;;3.33;2.87;;;;;;;28.11;48.34;99663.13;10332316;28;20072;-51
2023/08/24 15:57:45;;;;;;;3.80;2.50;;;;;;;28.06;48.64;99670.44;10321600;28;20908;-53
2023/08/24 16:02:47;;;;;;;3.87;2.73;;;;;;;27.95;49.31;99688.59;10333766;28;20080;-51
2023/08/24 16:07:51;;;;;;;4.03;2.88;;;;;;;27.87;49.62;99728.94;10331603;28;20058;-51
2023/08/24 16:12:54;;;;;;;5.03;2.65;;;;;;;27.80;50.41;99765.75;10328498;28;20042;-51
2023/08/24 16:17:55;;;;;;;7.30;3.40;;;;;;;27.75;50.92;99788.38;10335520;28;20532;-54
2023/08/24 16:22:57;;;;;;;5.17;3.73;;;;;;;27.57;51.26;99818.69;10331919;28;20049;-52
2023/08/24 16:27:59;;;;;;;4.70;3.72;;;;;;;27.56;51.11;99733.09;10332813;28;20618;-54
2023/08/24 16:33:00;;;;;;;4.70;2.97;;;;;;;27.59;50.76;99723.59;10330563;28;20088;-54
2023/08/24 16:38:02;;;;;;;5.50;3.03;;;;;;;27.53;51.05;99739.06;10321488;28;20066;-54
2023/08/24 16:43:04;;;;;;;5.00;2.77;;;;;;;27.57;50.84;99714.81;10316837;28;20070;-54
2023/08/24 16:48:06;;;;;;;4.13;2.92;;;;;;;27.44;50.43;99708.63;10330206;28;20076;-55
2023/08/24 16:53:08;;;;;;;4.72;2.80;;;;;;;27.46;50.36;99701.00;10332570;28;20516;-53
2023/08/24 16:58:10;;;;;;;3.50;3.20;;;;;;;27.49;50.45;99722.34;10318089;28;20138;-54
2023/08/24 17:03:11;;;;;;;3.92;2.92;;;;;;;27.44;49.46;99716.81;10317844;28;20056;-54
2023/08/24 17:08:14;;;;;;;6.33;3.30;;;;;;;27.38;49.62;99723.25;10332887;28;20114;-52
2023/08/24 17:13:16;;;;;;;5.18;3.22;;;;;;;27.37;49.81;99710.69;10332109;28;20069;-53
2023/08/24 17:18:18;;;;;;;6.28;2.58;;;;;;;27.32;49.43;99689.56;10333097;28;20669;-53
2023/08/24 17:23:20;;;;;;;5.70;3.25;;;;;;;27.17;49.63;99623.69;10335129;28;20065;-54
2023/08/24 17:28:21;;;;;;;3.55;2.80;;;;;;;27.30;49.47;99631.56;10331117;28;20073;-54
2023/08/24 17:33:23;;;;;;;4.20;3.10;;;;;;;27.14;49.33;99679.69;10326949;28;20084;-53
2023/08/24 17:38:24;;;;;;;4.27;3.03;;;;;;;26.99;49.85;99832.31;10328631;28;20057;-54
2023/08/24 17:43:25;;;;;;;5.68;3.63;;;;;;;26.90;49.80;99948.47;10330622;28;20073;-49
2023/08/24 17:48:27;;;;;;;9.88;4.10;;;;;;;26.70;57.28;99941.47;10336000;28;20056;-52
2023/08/24 17:53:29;;;;;;;8.73;4.90;;;;;;;26.33;62.29;99928.00;10334258;28;20123;-51
2023/08/24 17:58:32;;;;;;;;;;;;;;;26.18;63.57;99834.88;10334207;28;20816;-49
2023/08/24 18:03:33;;;;;;;4.53;3.50;;;;;;;26.07;65.92;99788.28;10317313;28;20369;-48
2023/08/24 18:08:35;;;;;;;5.82;4.20;;;;;;;25.99;68.64;99730.56;10332242;28;20407;-48
2023/08/24 18:13:52;;;;;;;4.50;3.55;;;;;;;26.02;68.99;99698.19;10336371;28;20050;-48
2023/08/24 18:18:57;;;;;;;5.90;3.90;;;;;;;25.89;69.89;99655.63;10336031;28;20049;-48
2023/08/24 18:23:59;;;;;;;8.13;4.07;;;;;;;25.80;69.08;99697.94;10317340;28;20060;-48
2023/08/24 18:29:00;;;;;;;5.00;4.47;;;;;;;25.71;70.95;99689.28;10324277;28;20088;-49
2023/08/24 18:34:03;;;;;;;5.15;4.07;;;;;;;25.59;72.42;99683.00;10335090;28;20188;-48
2023/08/24 18:39:04;;;;;;;7.68;4.82;;;;;;;25.44;71.76;99656.22;10337071;28;20053;-48
2023/08/24 18:44:06;;;;;;;8.93;4.78;;;;;;;25.51;71.73;99648.78;10343589;28;20053;-49
2023/08/24 18:49:08;;;;;;;5.90;4.70;;;;;;;25.43;72.48;99619.13;10339357;28;20049;-48
2023/08/24 18:54:09;;;;;;;5.75;5.13;;;;;;;25.32;72.99;99618.09;10339475;28;20060;-49
2023/08/24 18:59:10;;;;;;;6.95;5.30;;;;;;;25.16;73.13;99616.88;10344682;28;20132;-49
2023/08/24 19:04:12;;;;;;;7.47;6.43;;;;;;;25.10;75.82;99646.91;10342073;28;20054;-48
2023/08/24 19:09:14;;;;;;;7.32;5.80;;;;;;;25.09;75.88;99650.72;10337439;28;20087;-50
2023/08/24 19:14:15;;;;;;;8.32;5.20;;;;;;;25.01;76.69;99633.66;10336617;28;20053;-48
2023/08/24 19:19:16;;;;;;;9.18;6.38;;;;;;;24.96;77.16;99603.56;10331116;28;20056;-48
2023/08/24 19:24:18;;;;;;;7.65;5.20;;;;;;;24.90;77.60;99603.69;10324917;28;20057;-50
2023/08/24 19:29:20;;;;;;;7.35;6.15;;;;;;;24.80;76.94;99609.69;10326546;28;20061;-49
2023/08/24 19:34:21;;;;;;;12.02;6.20;;;;;;;24.77;77.43;99610.16;10332412;28;20128;-48
2023/08/24 19:39:23;;;;;;;10.00;6.13;;;;;;;24.65;78.76;99619.13;10335166;28;20164;-48
2023/08/24 19:44:24;;;;;;;8.27;6.55;;;;;;;24.62;78.94;99635.91;10331828;28;20058;-48
2023/08/24 19:49:26;;;;;;;7.60;6.85;;;;;;;24.58;78.79;99640.16;10338383;28;20057;-49
2023/08/24 19:54:28;;;;;;;8.17;7.37;;;;;;;24.51;77.56;99642.91;10320400;28;20060;-53
2023/08/24 19:59:29;;;;;;;6.00;5.40;;;;;;;24.40;76.99;99637.44;10334455;28;21102;-53
2023/08/24 20:04:31;;;;;;;7.13;6.40;;;;;;;24.39;78.77;99627.63;10334897;28;20272;-56
2023/08/24 20:09:33;;;;;;;7.18;5.93;;;;;;;24.39;78.82;99627.63;10317138;28;20152;-49
2023/08/24 20:14:35;;;;;;;6.35;5.75;;;;;;;24.35;78.45;99619.91;10337680;28;20088;-48
2023/08/24 20:19:37;;;;;;;7.47;6.10;;;;;;;24.29;78.34;99620.84;10334019;28;20089;-48
2023/08/24 20:24:39;;;;;;;7.90;6.43;;;;;;;24.27;78.68;99627.56;10315868;28;20223;-47
2023/08/24 20:29:40;;;;;;;11.45;6.57;;;;;;;24.22;78.62;99625.53;10337513;28;20091;-48
2023/08/24 20:34:42;;;;;;;9.98;6.47;;;;;;;24.18;80.85;99637.91;10316211;28;20056;-49
2023/08/24 20:39:43;;;;;;;7.57;6.10;;;;;;;24.18;80.26;99636.03;10327662;28;20553;-49
2023/08/24 20:44:45;;;;;;;7.88;7.07;;;;;;;24.09;80.83;99633.84;10317957;28;20589;-48
2023/08/24 20:49:47;;;;;;;8.15;7.38;;;;;;;24.13;80.54;99664.97;10333058;28;20053;-49
2023/08/24 20:54:50;;;;;;;7.05;6.38;;;;;;;23.92;80.46;99631.72;10329514;28;20083;-49
2023/08/24 20:59:51;;;;;;;7.57;6.77;;;;;;;24.02;82.04;99643.97;10342500;28;21004;-48
2023/08/24 21:04:54;;;;;;;8.13;7.22;;;;;;;23.67;84.77;99647.25;10320933;28;20061;-48
2023/08/24 21:09:57;;;;;;;;;;;;;;;23.49;85.64;99643.44;10336427;28;20234;-48
2023/08/24 21:14:58;;;;;;;7.97;7.20;;;;;;;23.54;87.21;99635.44;10315418;28;19940;-54
2023/08/24 21:20:00;;;;;;;7.82;6.75;;;;;;;23.48;85.64;99637.16;10341011;28;20061;-48
2023/08/24 21:25:02;;;;;;;7.18;6.53;;;;;;;23.61;85.88;99636.19;10345480;28;20049;-49
2023/08/24 21:30:05;;;;;;;9.13;7.20;;;;;;;23.64;85.55;99637.63;10343577;28;20104;-48
2023/08/24 21:35:07;;;;;;;9.00;7.17;;;;;;;23.65;83.99;99637.41;10344906;28;20299;-47
2023/08/24 21:40:09;;;;;;;10.00;7.30;;;;;;;23.64;85.38;99641.22;10340097;28;20144;-48
2023/08/24 21:45:11;;;;;;;9.20;7.30;;;;;;;23.68;85.83;99651.63;10327351;28;20342;-49
2023/08/24 21:50:12;;;;;;;9.82;7.20;;;;;;;23.64;85.04;99653.94;10340479;28;20710;-48
2023/08/24 21:55:14;;;;;;;8.25;7.13;;;;;;;23.69;85.91;99654.13;10343669;28;20077;-48
2023/08/24 22:00:15;;;;;;;7.93;7.20;;;;;;;23.68;85.85;99666.03;10341608;28;20053;-48
2023/08/24 22:05:17;;;;;;;8.18;7.35;;;;;;;23.64;84.58;99652.06;10340864;28;20148;-49
2023/08/24 22:10:18;;;;;;;8.43;7.47;;;;;;;23.65;85.29;99670.00;10336230;28;20058;-48
2023/08/24 22:15:21;;;;;;;9.50;7.00;;;;;;;23.64;84.16;99672.97;10330702;28;20046;-48
2023/08/24 22:20:24;;;;;;;10.00;7.57;;;;;;;23.59;84.32;99675.53;10346383;28;20415;-47
2023/08/24 22:25:25;;;;;;;7.05;6.35;;;;;;;23.57;84.32;99677.63;10335169;28;20133;-48
2023/08/24 22:30:28;;;;;;;9.98;7.68;;;;;;;23.51;84.32;99684.78;10348600;28;20049;-50
2023/08/24 22:35:30;;;;;;;11.53;8.57;;;;;;;23.52;84.08;99681.00;10334399;28;20045;-52
2023/08/24 22:40:31;;;;;;;9.25;8.43;;;;;;;23.46;84.37;99685.47;10350916;28;20099;-48
2023/08/24 22:45:39;;;;;;;9.13;8.32;;;;;;;23.42;84.78;99688.81;10350949;28;20054;-49
2023/08/24 22:50:41;;;;;;;9.35;8.10;;;;;;;23.37;85.52;99692.19;10352305;28;20549;-48
2023/08/24 22:55:43;;;;;;;10.50;9.45;;;;;;;23.30;86.66;99713.16;10350385;28;20084;-48
2023/08/24 23:00:44;;;;;;;9.95;9.05;;;;;;;23.25;86.83;99716.50;10347719;28;20762;-48
2023/08/24 23:05:46;;;;;;;11.18;9.73;;;;;;;23.19;87.59;99717.38;10336066;28;20605;-49
2023/08/24 23:10:47;;;;;;;10.13;9.15;;;;;;;23.12;87.95;99720.16;10345979;28;20101;-48
2023/08/24 23:15:49;;;;;;;10.70;9.60;;;;;;;23.09;87.46;99709.75;10343287;28;20162;-49
2023/08/24 23:20:51;;;;;;;13.93;11.52;;;;;;;23.05;87.13;99689.47;10348327;28;20057;-49